sensor_id;sensor_type;location;lat;lon;timestamp;P1;durP1;ratioP1;P2;durP2;ratioP2
56307;SDS011;42217;50.422;7.210;2023-06-19T00:01:17;504.55;;;479.10;;
56307;SDS011;42217;50.422;7.210;2023-06-19T00:03:43;519.35;;;492.85;;
56307;SDS011;42217;50.422;7.210;2023-06-19T00:06:09;503.83;;;477.98;;
56307;SDS011;42217;50.422;7.210;2023-06-19T00:08:34;495.38;;;469.98;;
56307;SDS011;42217;50.422;7.210;2023-06-19T00:11:01;512.75;;;486.17;;
56307;SDS011;42217;50.422;7.210;2023-06-19T00:13:27;496.75;;;471.55;;
56307;SDS011;42217;50.422;7.210;2023-06-19T00:15:53;501.67;;;476.20;;
56307;SDS011;42217;50.422;7.210;2023-06-19T00:18:18;509.63;;;483.42;;
56307;SDS011;42217;50.422;7.210;2023-06-19T00:20:45;482.80;;;458.50;;
56307;SDS011;42217;50.422;7.210;2023-06-19T00:23:11;511.23;;;485.10;;
56307;SDS011;42217;50.422;7.210;2023-06-19T00:25:39;506.38;;;480.45;;
56307;SDS011;42217;50.422;7.210;2023-06-19T00:28:06;524.17;;;496.95;;
56307;SDS011;42217;50.422;7.210;2023-06-19T00:30:36;511.20;;;484.95;;
56307;SDS011;42217;50.422;7.210;2023-06-19T00:33:03;497.90;;;472.58;;
56307;SDS011;42217;50.422;7.210;2023-06-19T00:35:29;516.35;;;490.13;;
56307;SDS011;42217;50.422;7.210;2023-06-19T00:37:55;511.83;;;485.73;;
56307;SDS011;42217;50.422;7.210;2023-06-19T00:40:24;535.03;;;507.00;;
56307;SDS011;42217;50.422;7.210;2023-06-19T00:42:53;499.00;;;473.30;;
56307;SDS011;42217;50.422;7.210;2023-06-19T00:45:19;538.13;;;509.92;;
56307;SDS011;42217;50.422;7.210;2023-06-19T00:47:44;535.55;;;507.27;;
56307;SDS011;42217;50.422;7.210;2023-06-19T00:50:11;552.90;;;523.03;;
56307;SDS011;42217;50.422;7.210;2023-06-19T00:52:37;533.55;;;505.27;;
56307;SDS011;42217;50.422;7.210;2023-06-19T00:55:03;530.13;;;501.80;;
56307;SDS011;42217;50.422;7.210;2023-06-19T00:57:32;569.67;;;538.88;;
56307;SDS011;42217;50.422;7.210;2023-06-19T00:59:58;498.10;;;472.48;;
56307;SDS011;42217;50.422;7.210;2023-06-19T01:02:24;505.42;;;479.08;;
56307;SDS011;42217;50.422;7.210;2023-06-19T01:04:51;485.27;;;460.55;;
56307;SDS011;42217;50.422;7.210;2023-06-19T01:07:18;491.83;;;466.77;;
56307;SDS011;42217;50.422;7.210;2023-06-19T01:09:52;582.50;;;550.03;;
56307;SDS011;42217;50.422;7.210;2023-06-19T01:12:24;476.88;;;452.65;;
56307;SDS011;42217;50.422;7.210;2023-06-19T01:14:57;518.55;;;491.27;;
56307;SDS011;42217;50.422;7.210;2023-06-19T01:17:24;494.75;;;469.45;;
56307;SDS011;42217;50.422;7.210;2023-06-19T01:19:54;506.55;;;480.23;;
56307;SDS011;42217;50.422;7.210;2023-06-19T01:22:27;488.48;;;463.60;;
56307;SDS011;42217;50.422;7.210;2023-06-19T01:24:54;501.23;;;475.67;;
56307;SDS011;42217;50.422;7.210;2023-06-19T01:27:20;502.33;;;476.42;;
56307;SDS011;42217;50.422;7.210;2023-06-19T01:29:46;503.45;;;477.80;;
56307;SDS011;42217;50.422;7.210;2023-06-19T01:32:18;488.55;;;463.75;;
56307;SDS011;42217;50.422;7.210;2023-06-19T01:34:51;512.30;;;485.20;;
56307;SDS011;42217;50.422;7.210;2023-06-19T01:37:18;496.55;;;471.35;;
56307;SDS011;42217;50.422;7.210;2023-06-19T01:39:45;508.50;;;482.05;;
56307;SDS011;42217;50.422;7.210;2023-06-19T01:42:12;494.50;;;469.25;;
56307;SDS011;42217;50.422;7.210;2023-06-19T01:44:39;497.83;;;472.60;;
56307;SDS011;42217;50.422;7.210;2023-06-19T01:47:11;494.95;;;469.65;;
56307;SDS011;42217;50.422;7.210;2023-06-19T01:49:38;522.85;;;495.70;;
56307;SDS011;42217;50.422;7.210;2023-06-19T01:52:04;485.77;;;461.10;;
56307;SDS011;42217;50.422;7.210;2023-06-19T01:54:31;538.85;;;509.73;;
56307;SDS011;42217;50.422;7.210;2023-06-19T01:56:57;479.05;;;454.65;;
56307;SDS011;42217;50.422;7.210;2023-06-19T01:59:24;545.40;;;515.35;;
56307;SDS011;42217;50.422;7.210;2023-06-19T02:01:49;518.50;;;491.45;;
56307;SDS011;42217;50.422;7.210;2023-06-19T02:04:15;483.50;;;458.38;;
56307;SDS011;42217;50.422;7.210;2023-06-19T02:06:40;484.67;;;460.20;;
56307;SDS011;42217;50.422;7.210;2023-06-19T02:09:06;483.90;;;459.40;;
56307;SDS011;42217;50.422;7.210;2023-06-19T02:11:33;551.20;;;521.45;;
56307;SDS011;42217;50.422;7.210;2023-06-19T02:13:58;482.55;;;458.20;;
56307;SDS011;42217;50.422;7.210;2023-06-19T02:16:24;511.17;;;484.38;;
56307;SDS011;42217;50.422;7.210;2023-06-19T02:18:49;511.52;;;485.20;;
56307;SDS011;42217;50.422;7.210;2023-06-19T02:21:15;501.13;;;475.58;;
56307;SDS011;42217;50.422;7.210;2023-06-19T02:23:41;507.13;;;480.67;;
56307;SDS011;42217;50.422;7.210;2023-06-19T02:26:06;505.35;;;479.77;;
56307;SDS011;42217;50.422;7.210;2023-06-19T02:28:32;500.67;;;475.00;;
56307;SDS011;42217;50.422;7.210;2023-06-19T02:30:58;516.53;;;489.80;;
56307;SDS011;42217;50.422;7.210;2023-06-19T02:33:23;561.85;;;531.95;;
56307;SDS011;42217;50.422;7.210;2023-06-19T02:35:49;617.42;;;582.13;;
56307;SDS011;42217;50.422;7.210;2023-06-19T02:38:15;499.20;;;473.45;;
56307;SDS011;42217;50.422;7.210;2023-06-19T02:40:40;582.47;;;549.50;;
56307;SDS011;42217;50.422;7.210;2023-06-19T02:43:06;482.92;;;458.85;;
56307;SDS011;42217;50.422;7.210;2023-06-19T02:45:32;718.33;;;671.97;;
56307;SDS011;42217;50.422;7.210;2023-06-19T02:47:57;554.55;;;524.33;;
56307;SDS011;42217;50.422;7.210;2023-06-19T02:50:23;537.55;;;508.60;;
56307;SDS011;42217;50.422;7.210;2023-06-19T02:52:49;499.52;;;474.05;;
56307;SDS011;42217;50.422;7.210;2023-06-19T02:55:14;704.63;;;657.97;;
56307;SDS011;42217;50.422;7.210;2023-06-19T02:57:40;504.25;;;478.05;;
56307;SDS011;42217;50.422;7.210;2023-06-19T03:00:06;747.70;;;696.33;;
56307;SDS011;42217;50.422;7.210;2023-06-19T03:02:34;521.58;;;494.13;;
56307;SDS011;42217;50.422;7.210;2023-06-19T03:05:00;651.97;;;611.17;;
56307;SDS011;42217;50.422;7.210;2023-06-19T03:07:25;628.97;;;591.17;;
56307;SDS011;42217;50.422;7.210;2023-06-19T03:09:53;663.45;;;622.58;;
56307;SDS011;42217;50.422;7.210;2023-06-19T03:12:19;692.65;;;649.03;;
56307;SDS011;42217;50.422;7.210;2023-06-19T03:14:45;733.55;;;687.17;;
56307;SDS011;42217;50.422;7.210;2023-06-19T03:17:11;759.20;;;710.63;;
56307;SDS011;42217;50.422;7.210;2023-06-19T03:19:37;934.63;;;862.53;;
56307;SDS011;42217;50.422;7.210;2023-06-19T03:22:03;773.95;;;723.80;;
56307;SDS011;42217;50.422;7.210;2023-06-19T03:24:29;752.35;;;703.95;;
56307;SDS011;42217;50.422;7.210;2023-06-19T03:26:54;842.50;;;783.53;;
56307;SDS011;42217;50.422;7.210;2023-06-19T03:29:20;849.58;;;790.28;;
56307;SDS011;42217;50.422;7.210;2023-06-19T03:31:46;888.58;;;822.75;;
56307;SDS011;42217;50.422;7.210;2023-06-19T03:34:12;757.60;;;707.10;;
56307;SDS011;42217;50.422;7.210;2023-06-19T03:36:37;687.70;;;643.17;;
56307;SDS011;42217;50.422;7.210;2023-06-19T03:39:03;743.67;;;692.47;;
56307;SDS011;42217;50.422;7.210;2023-06-19T03:41:29;958.78;;;879.88;;
56307;SDS011;42217;50.422;7.210;2023-06-19T03:43:57;1024.68;;;940.22;;
56307;SDS011;42217;50.422;7.210;2023-06-19T03:46:22;984.83;;;907.83;;
56307;SDS011;42217;50.422;7.210;2023-06-19T03:48:48;1041.15;;;957.50;;
56307;SDS011;42217;50.422;7.210;2023-06-19T03:51:14;998.33;;;920.85;;
56307;SDS011;42217;50.422;7.210;2023-06-19T03:53:40;1036.88;;;956.50;;
56307;SDS011;42217;50.422;7.210;2023-06-19T03:56:06;796.92;;;745.95;;
56307;SDS011;42217;50.422;7.210;2023-06-19T03:58:32;850.75;;;787.90;;
56307;SDS011;42217;50.422;7.210;2023-06-19T04:00:58;1064.20;;;974.63;;
56307;SDS011;42217;50.422;7.210;2023-06-19T04:03:24;1061.78;;;974.72;;
56307;SDS011;42217;50.422;7.210;2023-06-19T04:05:49;1016.83;;;936.83;;
56307;SDS011;42217;50.422;7.210;2023-06-19T04:08:15;944.58;;;875.97;;
56307;SDS011;42217;50.422;7.210;2023-06-19T04:10:41;986.03;;;908.92;;
56307;SDS011;42217;50.422;7.210;2023-06-19T04:13:07;1010.97;;;931.17;;
56307;SDS011;42217;50.422;7.210;2023-06-19T04:15:33;983.00;;;906.95;;
56307;SDS011;42217;50.422;7.210;2023-06-19T04:18:00;1087.43;;;997.88;;
56307;SDS011;42217;50.422;7.210;2023-06-19T04:20:26;1049.40;;;966.72;;
56307;SDS011;42217;50.422;7.210;2023-06-19T04:22:52;981.58;;;907.17;;
56307;SDS011;42217;50.422;7.210;2023-06-19T04:25:18;1040.35;;;958.90;;
56307;SDS011;42217;50.422;7.210;2023-06-19T04:27:43;903.90;;;840.58;;
56307;SDS011;42217;50.422;7.210;2023-06-19T04:30:10;902.95;;;838.80;;
56307;SDS011;42217;50.422;7.210;2023-06-19T04:32:36;882.45;;;820.20;;
56307;SDS011;42217;50.422;7.210;2023-06-19T04:35:08;808.15;;;755.00;;
56307;SDS011;42217;50.422;7.210;2023-06-19T04:37:34;815.42;;;761.97;;
56307;SDS011;42217;50.422;7.210;2023-06-19T04:40:00;863.90;;;806.03;;
56307;SDS011;42217;50.422;7.210;2023-06-19T04:42:27;747.55;;;701.20;;
56307;SDS011;42217;50.422;7.210;2023-06-19T04:44:52;826.88;;;772.72;;
56307;SDS011;42217;50.422;7.210;2023-06-19T04:47:19;687.00;;;646.13;;
56307;SDS011;42217;50.422;7.210;2023-06-19T04:49:47;722.78;;;678.50;;
56307;SDS011;42217;50.422;7.210;2023-06-19T04:52:12;799.13;;;748.35;;
56307;SDS011;42217;50.422;7.210;2023-06-19T04:54:38;706.03;;;663.58;;
56307;SDS011;42217;50.422;7.210;2023-06-19T04:57:04;660.95;;;623.08;;
56307;SDS011;42217;50.422;7.210;2023-06-19T04:59:30;719.90;;;676.53;;
56307;SDS011;42217;50.422;7.210;2023-06-19T05:01:56;816.75;;;760.65;;
56307;SDS011;42217;50.422;7.210;2023-06-19T05:04:22;780.63;;;728.90;;
56307;SDS011;42217;50.422;7.210;2023-06-19T05:06:49;618.10;;;584.03;;
56307;SDS011;42217;50.422;7.210;2023-06-19T05:09:14;594.08;;;561.97;;
56307;SDS011;42217;50.422;7.210;2023-06-19T05:11:40;573.90;;;543.42;;
56307;SDS011;42217;50.422;7.210;2023-06-19T05:14:06;654.22;;;616.40;;
56307;SDS011;42217;50.422;7.210;2023-06-19T05:16:33;516.88;;;490.00;;
56307;SDS011;42217;50.422;7.210;2023-06-19T05:18:58;521.00;;;494.58;;
56307;SDS011;42217;50.422;7.210;2023-06-19T05:21:24;686.97;;;641.58;;
56307;SDS011;42217;50.422;7.210;2023-06-19T05:23:50;483.75;;;459.35;;
56307;SDS011;42217;50.422;7.210;2023-06-19T05:26:17;477.13;;;453.08;;
56307;SDS011;42217;50.422;7.210;2023-06-19T05:28:43;498.10;;;472.08;;
56307;SDS011;42217;50.422;7.210;2023-06-19T05:31:09;516.72;;;489.95;;
56307;SDS011;42217;50.422;7.210;2023-06-19T05:33:35;594.55;;;560.40;;
56307;SDS011;42217;50.422;7.210;2023-06-19T05:36:00;474.05;;;449.58;;
56307;SDS011;42217;50.422;7.210;2023-06-19T05:38:26;742.95;;;691.45;;
56307;SDS011;42217;50.422;7.210;2023-06-19T05:40:55;504.63;;;476.98;;
56307;SDS011;42217;50.422;7.210;2023-06-19T05:43:21;877.15;;;813.58;;
56307;SDS011;42217;50.422;7.210;2023-06-19T05:45:47;486.35;;;460.35;;
56307;SDS011;42217;50.422;7.210;2023-06-19T05:48:13;599.22;;;564.05;;
56307;SDS011;42217;50.422;7.210;2023-06-19T05:50:38;552.88;;;522.28;;
56307;SDS011;42217;50.422;7.210;2023-06-19T05:53:04;642.88;;;603.65;;
56307;SDS011;42217;50.422;7.210;2023-06-19T05:55:30;529.70;;;499.80;;
56307;SDS011;42217;50.422;7.210;2023-06-19T05:57:56;476.42;;;451.92;;
56307;SDS011;42217;50.422;7.210;2023-06-19T06:00:21;596.42;;;560.95;;
56307;SDS011;42217;50.422;7.210;2023-06-19T06:02:48;621.95;;;586.03;;
56307;SDS011;42217;50.422;7.210;2023-06-19T06:05:16;826.92;;;766.90;;
56307;SDS011;42217;50.422;7.210;2023-06-19T06:07:44;863.17;;;799.38;;
56307;SDS011;42217;50.422;7.210;2023-06-19T06:10:10;679.60;;;635.92;;
56307;SDS011;42217;50.422;7.210;2023-06-19T06:12:36;622.60;;;582.97;;
56307;SDS011;42217;50.422;7.210;2023-06-19T06:15:02;616.13;;;579.05;;
56307;SDS011;42217;50.422;7.210;2023-06-19T06:17:30;877.83;;;810.22;;
56307;SDS011;42217;50.422;7.210;2023-06-19T06:19:56;821.33;;;761.60;;
56307;SDS011;42217;50.422;7.210;2023-06-19T06:22:22;755.67;;;705.90;;
56307;SDS011;42217;50.422;7.210;2023-06-19T06:24:47;680.50;;;639.38;;
56307;SDS011;42217;50.422;7.210;2023-06-19T06:27:13;908.08;;;840.00;;
56307;SDS011;42217;50.422;7.210;2023-06-19T06:29:39;874.75;;;808.13;;
56307;SDS011;42217;50.422;7.210;2023-06-19T06:32:05;599.58;;;565.50;;
56307;SDS011;42217;50.422;7.210;2023-06-19T06:34:32;688.20;;;645.25;;
56307;SDS011;42217;50.422;7.210;2023-06-19T06:36:59;895.22;;;827.90;;
56307;SDS011;42217;50.422;7.210;2023-06-19T06:39:25;788.15;;;734.13;;
56307;SDS011;42217;50.422;7.210;2023-06-19T06:41:51;846.13;;;782.67;;
56307;SDS011;42217;50.422;7.210;2023-06-19T06:44:17;927.10;;;853.13;;
56307;SDS011;42217;50.422;7.210;2023-06-19T06:46:42;754.45;;;702.95;;
56307;SDS011;42217;50.422;7.210;2023-06-19T06:49:08;881.42;;;818.63;;
56307;SDS011;42217;50.422;7.210;2023-06-19T06:51:34;780.55;;;728.05;;
56307;SDS011;42217;50.422;7.210;2023-06-19T06:53:59;658.33;;;619.08;;
56307;SDS011;42217;50.422;7.210;2023-06-19T06:56:25;687.05;;;645.15;;
56307;SDS011;42217;50.422;7.210;2023-06-19T06:58:51;688.85;;;647.03;;
56307;SDS011;42217;50.422;7.210;2023-06-19T07:01:17;740.22;;;693.30;;
56307;SDS011;42217;50.422;7.210;2023-06-19T07:03:42;936.45;;;866.83;;
56307;SDS011;42217;50.422;7.210;2023-06-19T07:06:08;816.08;;;761.65;;
56307;SDS011;42217;50.422;7.210;2023-06-19T07:08:34;855.72;;;794.97;;
56307;SDS011;42217;50.422;7.210;2023-06-19T07:10:59;848.92;;;787.53;;
56307;SDS011;42217;50.422;7.210;2023-06-19T07:13:25;749.78;;;701.80;;
56307;SDS011;42217;50.422;7.210;2023-06-19T07:15:51;863.08;;;802.05;;
56307;SDS011;42217;50.422;7.210;2023-06-19T07:18:17;725.38;;;680.80;;
56307;SDS011;42217;50.422;7.210;2023-06-19T07:20:42;796.95;;;743.03;;
56307;SDS011;42217;50.422;7.210;2023-06-19T07:23:08;567.35;;;535.67;;
56307;SDS011;42217;50.422;7.210;2023-06-19T07:25:35;746.90;;;698.78;;
56307;SDS011;42217;50.422;7.210;2023-06-19T07:28:01;877.08;;;814.85;;
56307;SDS011;42217;50.422;7.210;2023-06-19T07:30:27;876.83;;;815.85;;
56307;SDS011;42217;50.422;7.210;2023-06-19T07:32:52;877.80;;;816.85;;
56307;SDS011;42217;50.422;7.210;2023-06-19T07:35:18;630.05;;;593.95;;
56307;SDS011;42217;50.422;7.210;2023-06-19T07:37:44;615.47;;;580.13;;
56307;SDS011;42217;50.422;7.210;2023-06-19T07:40:10;588.55;;;555.58;;
56307;SDS011;42217;50.422;7.210;2023-06-19T07:42:36;577.40;;;545.47;;
56307;SDS011;42217;50.422;7.210;2023-06-19T07:45:02;582.42;;;549.45;;
56307;SDS011;42217;50.422;7.210;2023-06-19T07:47:28;567.25;;;536.60;;
56307;SDS011;42217;50.422;7.210;2023-06-19T07:49:54;589.38;;;556.42;;
56307;SDS011;42217;50.422;7.210;2023-06-19T07:52:20;611.58;;;576.25;;
56307;SDS011;42217;50.422;7.210;2023-06-19T07:54:52;652.53;;;613.78;;
56307;SDS011;42217;50.422;7.210;2023-06-19T07:57:19;595.67;;;562.55;;
56307;SDS011;42217;50.422;7.210;2023-06-19T07:59:46;630.95;;;594.35;;
56307;SDS011;42217;50.422;7.210;2023-06-19T08:02:13;647.85;;;609.90;;
56307;SDS011;42217;50.422;7.210;2023-06-19T08:04:39;665.03;;;625.33;;
56307;SDS011;42217;50.422;7.210;2023-06-19T08:07:04;701.15;;;658.17;;
56307;SDS011;42217;50.422;7.210;2023-06-19T08:09:30;718.45;;;672.90;;
56307;SDS011;42217;50.422;7.210;2023-06-19T08:11:56;713.70;;;668.80;;
56307;SDS011;42217;50.422;7.210;2023-06-19T08:14:22;747.22;;;699.00;;
56307;SDS011;42217;50.422;7.210;2023-06-19T08:16:48;729.25;;;683.42;;
56307;SDS011;42217;50.422;7.210;2023-06-19T08:19:14;700.63;;;657.22;;
56307;SDS011;42217;50.422;7.210;2023-06-19T08:21:39;682.53;;;641.25;;
56307;SDS011;42217;50.422;7.210;2023-06-19T08:24:05;707.13;;;663.20;;
56307;SDS011;42217;50.422;7.210;2023-06-19T08:26:31;714.15;;;670.58;;
56307;SDS011;42217;50.422;7.210;2023-06-19T08:28:57;686.28;;;645.55;;
56307;SDS011;42217;50.422;7.210;2023-06-19T08:31:22;674.28;;;633.78;;
56307;SDS011;42217;50.422;7.210;2023-06-19T08:33:52;686.63;;;645.35;;
56307;SDS011;42217;50.422;7.210;2023-06-19T08:36:19;698.42;;;655.47;;
56307;SDS011;42217;50.422;7.210;2023-06-19T08:38:44;701.95;;;658.95;;
56307;SDS011;42217;50.422;7.210;2023-06-19T08:41:12;697.50;;;654.33;;
56307;SDS011;42217;50.422;7.210;2023-06-19T08:43:37;729.97;;;684.28;;
56307;SDS011;42217;50.422;7.210;2023-06-19T08:46:14;725.10;;;679.65;;
56307;SDS011;42217;50.422;7.210;2023-06-19T08:48:42;706.38;;;663.13;;
56307;SDS011;42217;50.422;7.210;2023-06-19T08:51:09;688.63;;;646.65;;
56307;SDS011;42217;50.422;7.210;2023-06-19T08:53:44;736.33;;;689.53;;
56307;SDS011;42217;50.422;7.210;2023-06-19T08:56:16;719.25;;;674.47;;
56307;SDS011;42217;50.422;7.210;2023-06-19T08:58:42;754.60;;;706.70;;
56307;SDS011;42217;50.422;7.210;2023-06-19T09:01:07;741.53;;;694.42;;
56307;SDS011;42217;50.422;7.210;2023-06-19T09:03:33;730.08;;;684.15;;
56307;SDS011;42217;50.422;7.210;2023-06-19T09:06:02;726.08;;;680.97;;
56307;SDS011;42217;50.422;7.210;2023-06-19T09:08:32;746.65;;;699.08;;
56307;SDS011;42217;50.422;7.210;2023-06-19T09:10:58;782.50;;;732.10;;
56307;SDS011;42217;50.422;7.210;2023-06-19T09:13:28;748.42;;;700.33;;
56307;SDS011;42217;50.422;7.210;2023-06-19T09:16:04;742.58;;;695.35;;
56307;SDS011;42217;50.422;7.210;2023-06-19T09:18:45;756.75;;;708.38;;
56307;SDS011;42217;50.422;7.210;2023-06-19T09:21:19;762.33;;;714.00;;
56307;SDS011;42217;50.422;7.210;2023-06-19T09:23:47;716.55;;;671.30;;
56307;SDS011;42217;50.422;7.210;2023-06-19T09:26:16;743.75;;;696.88;;
56307;SDS011;42217;50.422;7.210;2023-06-19T09:28:43;730.85;;;684.38;;
56307;SDS011;42217;50.422;7.210;2023-06-19T09:31:09;730.78;;;684.58;;
56307;SDS011;42217;50.422;7.210;2023-06-19T09:33:35;731.17;;;685.17;;
56307;SDS011;42217;50.422;7.210;2023-06-19T09:36:02;753.42;;;705.88;;
56307;SDS011;42217;50.422;7.210;2023-06-19T09:38:33;747.97;;;700.38;;
56307;SDS011;42217;50.422;7.210;2023-06-19T09:41:08;749.05;;;701.10;;
56307;SDS011;42217;50.422;7.210;2023-06-19T09:43:35;767.25;;;717.70;;
56307;SDS011;42217;50.422;7.210;2023-06-19T09:46:03;763.72;;;714.03;;
56307;SDS011;42217;50.422;7.210;2023-06-19T09:48:30;783.42;;;732.08;;
56307;SDS011;42217;50.422;7.210;2023-06-19T09:51:05;817.95;;;763.50;;
56307;SDS011;42217;50.422;7.210;2023-06-19T09:53:44;776.90;;;726.47;;
56307;SDS011;42217;50.422;7.210;2023-06-19T09:56:14;781.00;;;729.47;;
56307;SDS011;42217;50.422;7.210;2023-06-19T09:58:43;813.75;;;759.97;;
56307;SDS011;42217;50.422;7.210;2023-06-19T10:01:10;796.72;;;744.08;;
56307;SDS011;42217;50.422;7.210;2023-06-19T10:03:37;856.40;;;798.33;;
56307;SDS011;42217;50.422;7.210;2023-06-19T10:06:05;788.38;;;736.20;;
56307;SDS011;42217;50.422;7.210;2023-06-19T10:08:40;800.05;;;747.28;;
56307;SDS011;42217;50.422;7.210;2023-06-19T10:11:08;827.67;;;772.55;;
56307;SDS011;42217;50.422;7.210;2023-06-19T10:13:35;805.67;;;752.05;;
56307;SDS011;42217;50.422;7.210;2023-06-19T10:16:03;802.15;;;749.03;;
56307;SDS011;42217;50.422;7.210;2023-06-19T10:18:31;800.22;;;747.42;;
56307;SDS011;42217;50.422;7.210;2023-06-19T10:20:58;787.45;;;735.90;;
56307;SDS011;42217;50.422;7.210;2023-06-19T10:23:24;823.10;;;767.70;;
56307;SDS011;42217;50.422;7.210;2023-06-19T10:25:57;791.65;;;739.22;;
56307;SDS011;42217;50.422;7.210;2023-06-19T10:31:03;777.15;;;726.38;;
56307;SDS011;42217;50.422;7.210;2023-06-19T10:33:31;800.28;;;747.85;;
56307;SDS011;42217;50.422;7.210;2023-06-19T10:36:14;768.40;;;718.35;;
56307;SDS011;42217;50.422;7.210;2023-06-19T10:38:44;775.60;;;724.60;;
56307;SDS011;42217;50.422;7.210;2023-06-19T10:41:18;782.17;;;730.92;;
56307;SDS011;42217;50.422;7.210;2023-06-19T10:46:28;767.60;;;718.25;;
56307;SDS011;42217;50.422;7.210;2023-06-19T10:48:55;754.53;;;705.97;;
56307;SDS011;42217;50.422;7.210;2023-06-19T10:51:26;753.38;;;705.00;;
56307;SDS011;42217;50.422;7.210;2023-06-19T10:53:53;774.20;;;724.13;;
56307;SDS011;42217;50.422;7.210;2023-06-19T10:56:20;738.20;;;691.67;;
56307;SDS011;42217;50.422;7.210;2023-06-19T10:58:47;733.63;;;687.58;;
56307;SDS011;42217;50.422;7.210;2023-06-19T11:01:13;724.35;;;679.45;;
56307;SDS011;42217;50.422;7.210;2023-06-19T11:03:39;723.92;;;678.67;;
56307;SDS011;42217;50.422;7.210;2023-06-19T11:06:04;717.58;;;673.42;;
56307;SDS011;42217;50.422;7.210;2023-06-19T11:08:30;720.20;;;676.25;;
56307;SDS011;42217;50.422;7.210;2023-06-19T11:10:56;689.70;;;648.15;;
56307;SDS011;42217;50.422;7.210;2023-06-19T11:13:22;667.15;;;627.88;;
56307;SDS011;42217;50.422;7.210;2023-06-19T11:15:48;656.85;;;618.95;;
56307;SDS011;42217;50.422;7.210;2023-06-19T11:18:15;651.85;;;614.40;;
56307;SDS011;42217;50.422;7.210;2023-06-19T11:23:10;610.85;;;577.00;;
56307;SDS011;42217;50.422;7.210;2023-06-19T11:25:36;608.88;;;575.10;;
56307;SDS011;42217;50.422;7.210;2023-06-19T11:28:04;601.00;;;567.92;;
56307;SDS011;42217;50.422;7.210;2023-06-19T11:30:30;588.78;;;556.70;;
56307;SDS011;42217;50.422;7.210;2023-06-19T11:32:57;584.17;;;552.33;;
56307;SDS011;42217;50.422;7.210;2023-06-19T11:35:23;601.85;;;568.72;;
56307;SDS011;42217;50.422;7.210;2023-06-19T11:37:49;600.30;;;567.53;;
56307;SDS011;42217;50.422;7.210;2023-06-19T11:40:16;576.75;;;545.53;;
56307;SDS011;42217;50.422;7.210;2023-06-19T11:42:46;574.80;;;543.45;;
56307;SDS011;42217;50.422;7.210;2023-06-19T11:45:13;564.17;;;534.10;;
56307;SDS011;42217;50.422;7.210;2023-06-19T11:47:39;547.78;;;518.78;;
56307;SDS011;42217;50.422;7.210;2023-06-19T11:50:05;495.52;;;469.90;;
56307;SDS011;42217;50.422;7.210;2023-06-19T11:52:31;473.70;;;449.77;;
56307;SDS011;42217;50.422;7.210;2023-06-19T11:54:57;411.15;;;390.95;;
56307;SDS011;42217;50.422;7.210;2023-06-19T11:57:23;355.02;;;338.10;;
56307;SDS011;42217;50.422;7.210;2023-06-19T11:59:48;320.42;;;305.33;;
56307;SDS011;42217;50.422;7.210;2023-06-19T12:02:14;330.92;;;315.27;;
56307;SDS011;42217;50.422;7.210;2023-06-19T12:04:40;345.85;;;329.58;;
56307;SDS011;42217;50.422;7.210;2023-06-19T12:07:05;337.70;;;321.40;;
56307;SDS011;42217;50.422;7.210;2023-06-19T12:09:32;338.73;;;322.73;;
56307;SDS011;42217;50.422;7.210;2023-06-19T12:11:59;319.52;;;303.77;;
56307;SDS011;42217;50.422;7.210;2023-06-19T12:14:25;350.00;;;333.40;;
56307;SDS011;42217;50.422;7.210;2023-06-19T12:16:51;332.40;;;316.75;;
56307;SDS011;42217;50.422;7.210;2023-06-19T12:19:17;333.27;;;317.55;;
56307;SDS011;42217;50.422;7.210;2023-06-19T12:21:43;333.77;;;318.08;;
56307;SDS011;42217;50.422;7.210;2023-06-19T12:24:09;387.15;;;368.17;;
56307;SDS011;42217;50.422;7.210;2023-06-19T12:26:35;365.65;;;348.05;;
56307;SDS011;42217;50.422;7.210;2023-06-19T12:29:04;315.25;;;300.33;;
56307;SDS011;42217;50.422;7.210;2023-06-19T12:31:32;324.27;;;308.88;;
56307;SDS011;42217;50.422;7.210;2023-06-19T12:33:58;320.02;;;304.73;;
56307;SDS011;42217;50.422;7.210;2023-06-19T12:36:24;280.58;;;267.15;;
56307;SDS011;42217;50.422;7.210;2023-06-19T12:38:52;311.55;;;296.60;;
56307;SDS011;42217;50.422;7.210;2023-06-19T12:41:19;321.88;;;306.33;;
56307;SDS011;42217;50.422;7.210;2023-06-19T12:43:47;301.30;;;286.98;;
56307;SDS011;42217;50.422;7.210;2023-06-19T12:46:13;247.38;;;235.45;;
56307;SDS011;42217;50.422;7.210;2023-06-19T12:48:40;218.65;;;208.20;;
56307;SDS011;42217;50.422;7.210;2023-06-19T12:51:06;167.60;;;159.50;;
56307;SDS011;42217;50.422;7.210;2023-06-19T12:53:32;166.00;;;157.77;;
56307;SDS011;42217;50.422;7.210;2023-06-19T12:55:58;172.93;;;164.13;;
56307;SDS011;42217;50.422;7.210;2023-06-19T12:58:24;204.63;;;194.18;;
56307;SDS011;42217;50.422;7.210;2023-06-19T13:00:51;173.13;;;164.55;;
56307;SDS011;42217;50.422;7.210;2023-06-19T13:03:18;175.43;;;167.15;;
56307;SDS011;42217;50.422;7.210;2023-06-19T13:05:44;161.57;;;153.70;;
56307;SDS011;42217;50.422;7.210;2023-06-19T13:08:11;150.95;;;143.80;;
56307;SDS011;42217;50.422;7.210;2023-06-19T13:10:36;165.77;;;157.90;;
56307;SDS011;42217;50.422;7.210;2023-06-19T13:13:03;167.88;;;159.88;;
56307;SDS011;42217;50.422;7.210;2023-06-19T13:15:30;173.02;;;164.85;;
56307;SDS011;42217;50.422;7.210;2023-06-19T13:17:58;175.15;;;166.90;;
56307;SDS011;42217;50.422;7.210;2023-06-19T13:20:24;188.18;;;179.15;;
56307;SDS011;42217;50.422;7.210;2023-06-19T13:22:50;133.55;;;127.07;;
56307;SDS011;42217;50.422;7.210;2023-06-19T13:25:17;118.05;;;112.10;;
56307;SDS011;42217;50.422;7.210;2023-06-19T13:27:43;124.57;;;118.35;;
56307;SDS011;42217;50.422;7.210;2023-06-19T13:30:09;144.00;;;136.90;;
56307;SDS011;42217;50.422;7.210;2023-06-19T13:32:35;126.22;;;120.10;;
56307;SDS011;42217;50.422;7.210;2023-06-19T13:35:01;120.55;;;114.78;;
56307;SDS011;42217;50.422;7.210;2023-06-19T13:37:27;131.70;;;125.28;;
56307;SDS011;42217;50.422;7.210;2023-06-19T13:39:53;131.25;;;124.95;;
56307;SDS011;42217;50.422;7.210;2023-06-19T13:42:18;135.68;;;129.07;;
56307;SDS011;42217;50.422;7.210;2023-06-19T13:44:44;130.10;;;123.85;;
56307;SDS011;42217;50.422;7.210;2023-06-19T13:47:10;125.38;;;119.25;;
56307;SDS011;42217;50.422;7.210;2023-06-19T13:49:36;124.03;;;117.85;;
56307;SDS011;42217;50.422;7.210;2023-06-19T13:52:01;132.63;;;126.00;;
56307;SDS011;42217;50.422;7.210;2023-06-19T13:54:27;132.45;;;125.95;;
56307;SDS011;42217;50.422;7.210;2023-06-19T13:56:53;131.10;;;124.70;;
56307;SDS011;42217;50.422;7.210;2023-06-19T13:59:18;140.18;;;133.30;;
56307;SDS011;42217;50.422;7.210;2023-06-19T14:01:44;135.40;;;128.80;;